Terminal Aerodrome Forecast
Issued by NWS

Home | Current Version | Previous Version | Text Only | Print | Product List | Glossary On
Versions: 1 2 3 4 5 6 7 8 9 10 11 12 13 14 15
000
FTUS44 KSJT 012040 AAA
TAFSOA
TAF AMD
KSOA 012040Z 0121/0218 15007KT P6SM FEW070
     FM020100 16006KT P6SM SKC
     FM021200 17007KT P6SM SCT015
     FM021600 19008KT P6SM SCT035=

USA.gov is the U.S. government's official web portal to all federal, state and local government web resources and services.